Terminal Aerodrome Forecast
Issued by NWS

Home | Current Version | Previous Version | Text Only | Print | Product List | Glossary On
Versions: 1 2 3 4 5 6 7 8 9 10 11 12 13 14 15 16
000
FTUS45 KREV 251739
TAFTRK
TAF
KTRK 251739Z 2518/2618 00000KT P6SM FEW050 SCT180
     FM252100 22008KT P6SM SCT060 SCT110 BKN180
     FM260600 19015G28KT P6SM VCSH BKN040 OVC080 WS020/24040KT
     FM261200 20011G20KT 1SM -SN OVC010=

USA.gov is the U.S. government's official web portal to all federal, state and local government web resources and services.